sensor_id;sensor_type;location;lat;lon;timestamp;P1;durP1;ratioP1;P2;durP2;ratioP2
3918;SDS011;1974;48.670;8.994;2023-05-27T00:01:27;1.50;;;1.30;;
3918;SDS011;1974;48.670;8.994;2023-05-27T00:03:55;8.20;;;1.33;;
3918;SDS011;1974;48.670;8.994;2023-05-27T00:06:22;2.40;;;1.63;;
3918;SDS011;1974;48.670;8.994;2023-05-27T00:08:48;5.10;;;1.50;;
3918;SDS011;1974;48.670;8.994;2023-05-27T00:11:15;10.83;;;1.30;;
3918;SDS011;1974;48.670;8.994;2023-05-27T00:13:42;3.47;;;1.40;;
3918;SDS011;1974;48.670;8.994;2023-05-27T00:16:09;4.80;;;2.07;;
3918;SDS011;1974;48.670;8.994;2023-05-27T00:18:36;2.13;;;1.50;;
3918;SDS011;1974;48.670;8.994;2023-05-27T00:21:04;3.47;;;1.50;;
3918;SDS011;1974;48.670;8.994;2023-05-27T00:23:31;3.63;;;1.17;;
3918;SDS011;1974;48.670;8.994;2023-05-27T00:25:57;2.50;;;1.37;;
3918;SDS011;1974;48.670;8.994;2023-05-27T00:28:24;5.23;;;1.37;;
3918;SDS011;1974;48.670;8.994;2023-05-27T00:30:54;3.50;;;1.20;;
3918;SDS011;1974;48.670;8.994;2023-05-27T00:33:21;5.33;;;1.50;;
3918;SDS011;1974;48.670;8.994;2023-05-27T00:35:47;2.90;;;1.57;;
3918;SDS011;1974;48.670;8.994;2023-05-27T00:38:15;2.57;;;1.73;;
3918;SDS011;1974;48.670;8.994;2023-05-27T00:40:42;9.00;;;1.70;;
3918;SDS011;1974;48.670;8.994;2023-05-27T00:43:09;3.30;;;1.37;;
3918;SDS011;1974;48.670;8.994;2023-05-27T00:45:36;3.27;;;0.90;;
3918;SDS011;1974;48.670;8.994;2023-05-27T00:48:03;1.67;;;1.37;;
3918;SDS011;1974;48.670;8.994;2023-05-27T00:50:30;2.53;;;1.20;;
3918;SDS011;1974;48.670;8.994;2023-05-27T00:52:57;2.50;;;1.63;;
3918;SDS011;1974;48.670;8.994;2023-05-27T00:55:26;4.33;;;1.73;;
3918;SDS011;1974;48.670;8.994;2023-05-27T00:57:52;3.47;;;1.57;;
3918;SDS011;1974;48.670;8.994;2023-05-27T01:00:19;3.90;;;1.37;;
3918;SDS011;1974;48.670;8.994;2023-05-27T01:02:46;4.13;;;1.97;;
3918;SDS011;1974;48.670;8.994;2023-05-27T01:05:14;5.13;;;1.90;;
3918;SDS011;1974;48.670;8.994;2023-05-27T01:07:44;2.83;;;1.33;;
3918;SDS011;1974;48.670;8.994;2023-05-27T01:10:28;2.33;;;1.37;;
3918;SDS011;1974;48.670;8.994;2023-05-27T01:13:05;4.27;;;1.60;;
3918;SDS011;1974;48.670;8.994;2023-05-27T01:15:37;3.60;;;0.80;;
3918;SDS011;1974;48.670;8.994;2023-05-27T01:18:05;3.27;;;1.77;;
3918;SDS011;1974;48.670;8.994;2023-05-27T01:20:35;2.70;;;1.53;;
3918;SDS011;1974;48.670;8.994;2023-05-27T01:23:07;1.27;;;1.17;;
3918;SDS011;1974;48.670;8.994;2023-05-27T01:25:34;3.80;;;1.03;;
3918;SDS011;1974;48.670;8.994;2023-05-27T01:28:01;1.63;;;1.00;;
3918;SDS011;1974;48.670;8.994;2023-05-27T01:30:28;6.33;;;2.13;;
3918;SDS011;1974;48.670;8.994;2023-05-27T01:32:55;1.17;;;1.03;;
3918;SDS011;1974;48.670;8.994;2023-05-27T01:35:27;2.10;;;1.40;;
3918;SDS011;1974;48.670;8.994;2023-05-27T01:37:58;1.43;;;0.87;;
3918;SDS011;1974;48.670;8.994;2023-05-27T01:40:29;4.90;;;1.57;;
3918;SDS011;1974;48.670;8.994;2023-05-27T01:42:56;2.77;;;1.70;;
3918;SDS011;1974;48.670;8.994;2023-05-27T01:45:23;1.23;;;0.77;;
3918;SDS011;1974;48.670;8.994;2023-05-27T01:47:51;1.97;;;1.00;;
3918;SDS011;1974;48.670;8.994;2023-05-27T01:50:18;3.20;;;2.20;;
3918;SDS011;1974;48.670;8.994;2023-05-27T01:52:45;9.80;;;2.20;;
3918;SDS011;1974;48.670;8.994;2023-05-27T01:55:11;4.50;;;1.33;;
3918;SDS011;1974;48.670;8.994;2023-05-27T01:57:39;5.70;;;0.93;;
3918;SDS011;1974;48.670;8.994;2023-05-27T02:00:06;1.63;;;1.13;;
3918;SDS011;1974;48.670;8.994;2023-05-27T02:02:34;2.00;;;0.77;;
3918;SDS011;1974;48.670;8.994;2023-05-27T02:05:01;1.37;;;1.00;;
3918;SDS011;1974;48.670;8.994;2023-05-27T02:07:28;2.60;;;1.37;;
3918;SDS011;1974;48.670;8.994;2023-05-27T02:09:55;5.70;;;1.77;;
3918;SDS011;1974;48.670;8.994;2023-05-27T02:12:21;3.33;;;1.40;;
3918;SDS011;1974;48.670;8.994;2023-05-27T02:14:49;2.40;;;1.37;;
3918;SDS011;1974;48.670;8.994;2023-05-27T02:17:17;2.53;;;1.03;;
3918;SDS011;1974;48.670;8.994;2023-05-27T02:19:43;8.63;;;1.10;;
3918;SDS011;1974;48.670;8.994;2023-05-27T02:22:10;7.10;;;1.10;;
3918;SDS011;1974;48.670;8.994;2023-05-27T02:24:38;9.77;;;1.30;;
3918;SDS011;1974;48.670;8.994;2023-05-27T02:27:05;5.17;;;2.40;;
3918;SDS011;1974;48.670;8.994;2023-05-27T02:29:32;1.30;;;0.70;;
3918;SDS011;1974;48.670;8.994;2023-05-27T02:32:00;1.30;;;1.20;;
3918;SDS011;1974;48.670;8.994;2023-05-27T02:34:27;0.70;;;0.70;;
3918;SDS011;1974;48.670;8.994;2023-05-27T02:36:53;2.20;;;0.77;;
3918;SDS011;1974;48.670;8.994;2023-05-27T02:39:20;0.80;;;0.70;;
3918;SDS011;1974;48.670;8.994;2023-05-27T02:41:47;4.53;;;1.63;;
3918;SDS011;1974;48.670;8.994;2023-05-27T02:44:14;1.33;;;1.23;;
3918;SDS011;1974;48.670;8.994;2023-05-27T02:46:41;2.77;;;1.00;;
3918;SDS011;1974;48.670;8.994;2023-05-27T02:49:09;2.57;;;1.13;;
3918;SDS011;1974;48.670;8.994;2023-05-27T02:51:35;1.53;;;0.73;;
3918;SDS011;1974;48.670;8.994;2023-05-27T02:54:02;2.47;;;1.67;;
3918;SDS011;1974;48.670;8.994;2023-05-27T02:56:29;1.00;;;0.73;;
3918;SDS011;1974;48.670;8.994;2023-05-27T02:58:56;1.13;;;0.90;;
3918;SDS011;1974;48.670;8.994;2023-05-27T03:01:22;2.13;;;1.20;;
3918;SDS011;1974;48.670;8.994;2023-05-27T03:03:49;1.43;;;0.80;;
3918;SDS011;1974;48.670;8.994;2023-05-27T03:06:18;2.90;;;1.47;;
3918;SDS011;1974;48.670;8.994;2023-05-27T03:08:45;0.90;;;0.83;;
3918;SDS011;1974;48.670;8.994;2023-05-27T03:11:11;2.57;;;0.90;;
3918;SDS011;1974;48.670;8.994;2023-05-27T03:13:38;1.53;;;1.30;;
3918;SDS011;1974;48.670;8.994;2023-05-27T03:16:05;6.73;;;2.13;;
3918;SDS011;1974;48.670;8.994;2023-05-27T03:18:32;8.63;;;1.23;;
3918;SDS011;1974;48.670;8.994;2023-05-27T03:20:59;5.33;;;1.33;;
3918;SDS011;1974;48.670;8.994;2023-05-27T03:23:27;3.23;;;1.03;;
3918;SDS011;1974;48.670;8.994;2023-05-27T03:25:54;2.73;;;1.67;;
3918;SDS011;1974;48.670;8.994;2023-05-27T03:28:21;0.87;;;0.87;;
3918;SDS011;1974;48.670;8.994;2023-05-27T03:30:47;5.97;;;1.17;;
3918;SDS011;1974;48.670;8.994;2023-05-27T03:33:14;3.47;;;1.33;;
3918;SDS011;1974;48.670;8.994;2023-05-27T03:35:41;1.27;;;0.70;;
3918;SDS011;1974;48.670;8.994;2023-05-27T03:38:08;1.90;;;1.07;;
3918;SDS011;1974;48.670;8.994;2023-05-27T03:40:36;2.97;;;1.00;;
3918;SDS011;1974;48.670;8.994;2023-05-27T03:43:03;4.00;;;1.37;;
3918;SDS011;1974;48.670;8.994;2023-05-27T03:45:29;4.13;;;1.20;;
3918;SDS011;1974;48.670;8.994;2023-05-27T03:47:56;1.00;;;1.00;;
3918;SDS011;1974;48.670;8.994;2023-05-27T03:50:23;1.33;;;0.93;;
3918;SDS011;1974;48.670;8.994;2023-05-27T03:52:49;5.53;;;1.47;;
3918;SDS011;1974;48.670;8.994;2023-05-27T03:55:16;3.53;;;1.83;;
3918;SDS011;1974;48.670;8.994;2023-05-27T03:57:47;2.93;;;1.00;;
3918;SDS011;1974;48.670;8.994;2023-05-27T04:00:14;2.00;;;1.00;;
3918;SDS011;1974;48.670;8.994;2023-05-27T04:02:42;5.13;;;1.10;;
3918;SDS011;1974;48.670;8.994;2023-05-27T04:05:09;5.50;;;1.07;;
3918;SDS011;1974;48.670;8.994;2023-05-27T04:07:36;3.13;;;1.00;;
3918;SDS011;1974;48.670;8.994;2023-05-27T04:10:04;3.97;;;1.20;;
3918;SDS011;1974;48.670;8.994;2023-05-27T04:12:32;1.63;;;1.10;;
3918;SDS011;1974;48.670;8.994;2023-05-27T04:15:00;5.80;;;1.20;;
3918;SDS011;1974;48.670;8.994;2023-05-27T04:17:27;2.67;;;1.33;;
3918;SDS011;1974;48.670;8.994;2023-05-27T04:19:55;7.30;;;1.80;;
3918;SDS011;1974;48.670;8.994;2023-05-27T04:22:21;1.23;;;1.07;;
3918;SDS011;1974;48.670;8.994;2023-05-27T04:24:48;1.83;;;1.30;;
3918;SDS011;1974;48.670;8.994;2023-05-27T04:27:15;2.30;;;0.80;;
3918;SDS011;1974;48.670;8.994;2023-05-27T04:29:44;2.60;;;1.00;;
3918;SDS011;1974;48.670;8.994;2023-05-27T04:32:12;2.20;;;1.20;;
3918;SDS011;1974;48.670;8.994;2023-05-27T04:34:38;5.07;;;1.57;;
3918;SDS011;1974;48.670;8.994;2023-05-27T04:37:06;4.07;;;1.50;;
3918;SDS011;1974;48.670;8.994;2023-05-27T04:39:34;1.00;;;1.00;;
3918;SDS011;1974;48.670;8.994;2023-05-27T04:42:01;2.70;;;1.33;;
3918;SDS011;1974;48.670;8.994;2023-05-27T04:44:28;1.37;;;0.97;;
3918;SDS011;1974;48.670;8.994;2023-05-27T04:46:55;1.33;;;1.23;;
3918;SDS011;1974;48.670;8.994;2023-05-27T04:49:23;1.93;;;1.10;;
3918;SDS011;1974;48.670;8.994;2023-05-27T04:51:50;5.03;;;0.90;;
3918;SDS011;1974;48.670;8.994;2023-05-27T04:54:16;1.47;;;1.30;;
3918;SDS011;1974;48.670;8.994;2023-05-27T04:56:43;2.53;;;1.30;;
3918;SDS011;1974;48.670;8.994;2023-05-27T04:59:11;1.10;;;0.80;;
3918;SDS011;1974;48.670;8.994;2023-05-27T05:01:41;1.70;;;1.60;;
3918;SDS011;1974;48.670;8.994;2023-05-27T05:04:25;11.80;;;1.70;;
3918;SDS011;1974;48.670;8.994;2023-05-27T05:06:52;2.30;;;1.20;;
3918;SDS011;1974;48.670;8.994;2023-05-27T05:09:20;2.80;;;1.57;;
3918;SDS011;1974;48.670;8.994;2023-05-27T05:11:47;13.83;;;1.90;;
3918;SDS011;1974;48.670;8.994;2023-05-27T05:14:14;4.90;;;1.20;;
3918;SDS011;1974;48.670;8.994;2023-05-27T05:16:40;3.70;;;1.60;;
3918;SDS011;1974;48.670;8.994;2023-05-27T05:19:07;3.07;;;1.40;;
3918;SDS011;1974;48.670;8.994;2023-05-27T05:21:35;2.73;;;1.63;;
3918;SDS011;1974;48.670;8.994;2023-05-27T05:24:02;1.33;;;0.97;;
3918;SDS011;1974;48.670;8.994;2023-05-27T05:26:29;2.33;;;0.97;;
3918;SDS011;1974;48.670;8.994;2023-05-27T05:28:56;3.73;;;1.20;;
3918;SDS011;1974;48.670;8.994;2023-05-27T05:31:23;3.97;;;1.47;;
3918;SDS011;1974;48.670;8.994;2023-05-27T05:33:49;1.20;;;0.97;;
3918;SDS011;1974;48.670;8.994;2023-05-27T05:36:16;5.90;;;1.83;;
3918;SDS011;1974;48.670;8.994;2023-05-27T05:38:44;8.33;;;1.97;;
3918;SDS011;1974;48.670;8.994;2023-05-27T05:41:11;2.50;;;2.30;;
3918;SDS011;1974;48.670;8.994;2023-05-27T05:43:38;1.40;;;1.17;;
3918;SDS011;1974;48.670;8.994;2023-05-27T05:46:05;6.27;;;1.20;;
3918;SDS011;1974;48.670;8.994;2023-05-27T05:48:32;11.83;;;1.23;;
3918;SDS011;1974;48.670;8.994;2023-05-27T05:50:59;7.13;;;1.83;;
3918;SDS011;1974;48.670;8.994;2023-05-27T05:53:26;2.13;;;1.10;;
3918;SDS011;1974;48.670;8.994;2023-05-27T05:55:55;4.97;;;1.50;;
3918;SDS011;1974;48.670;8.994;2023-05-27T05:58:22;5.20;;;1.17;;
3918;SDS011;1974;48.670;8.994;2023-05-27T06:00:49;4.57;;;1.83;;
3918;SDS011;1974;48.670;8.994;2023-05-27T06:03:16;4.30;;;1.37;;
3918;SDS011;1974;48.670;8.994;2023-05-27T06:05:43;9.33;;;1.53;;
3918;SDS011;1974;48.670;8.994;2023-05-27T06:08:10;1.57;;;1.47;;
3918;SDS011;1974;48.670;8.994;2023-05-27T06:10:36;4.23;;;1.60;;
3918;SDS011;1974;48.670;8.994;2023-05-27T06:13:04;1.87;;;1.20;;
3918;SDS011;1974;48.670;8.994;2023-05-27T06:15:31;1.30;;;1.20;;
3918;SDS011;1974;48.670;8.994;2023-05-27T06:17:58;2.37;;;1.40;;
3918;SDS011;1974;48.670;8.994;2023-05-27T06:20:25;2.77;;;1.43;;
3918;SDS011;1974;48.670;8.994;2023-05-27T06:22:52;2.60;;;0.90;;
3918;SDS011;1974;48.670;8.994;2023-05-27T06:25:18;1.67;;;1.43;;
3918;SDS011;1974;48.670;8.994;2023-05-27T06:27:45;2.30;;;1.20;;
3918;SDS011;1974;48.670;8.994;2023-05-27T06:30:14;8.40;;;1.43;;
3918;SDS011;1974;48.670;8.994;2023-05-27T06:32:40;1.20;;;1.10;;
3918;SDS011;1974;48.670;8.994;2023-05-27T06:35:07;4.30;;;1.50;;
3918;SDS011;1974;48.670;8.994;2023-05-27T06:37:34;1.80;;;1.00;;
3918;SDS011;1974;48.670;8.994;2023-05-27T06:40:01;5.80;;;1.77;;
3918;SDS011;1974;48.670;8.994;2023-05-27T06:42:28;8.13;;;1.93;;
3918;SDS011;1974;48.670;8.994;2023-05-27T06:44:55;4.87;;;1.10;;
3918;SDS011;1974;48.670;8.994;2023-05-27T06:47:23;1.17;;;1.10;;
3918;SDS011;1974;48.670;8.994;2023-05-27T06:49:49;6.30;;;1.67;;
3918;SDS011;1974;48.670;8.994;2023-05-27T06:52:16;3.97;;;1.50;;
3918;SDS011;1974;48.670;8.994;2023-05-27T06:54:43;5.03;;;1.67;;
3918;SDS011;1974;48.670;8.994;2023-05-27T06:57:10;2.80;;;1.50;;
3918;SDS011;1974;48.670;8.994;2023-05-27T06:59:37;2.30;;;1.13;;
3918;SDS011;1974;48.670;8.994;2023-05-27T07:02:04;2.00;;;1.37;;
3918;SDS011;1974;48.670;8.994;2023-05-27T07:04:33;7.80;;;1.80;;
3918;SDS011;1974;48.670;8.994;2023-05-27T07:07:01;2.53;;;1.60;;
3918;SDS011;1974;48.670;8.994;2023-05-27T07:09:28;3.07;;;1.50;;
3918;SDS011;1974;48.670;8.994;2023-05-27T07:11:55;4.70;;;1.30;;
3918;SDS011;1974;48.670;8.994;2023-05-27T07:14:21;5.70;;;1.53;;
3918;SDS011;1974;48.670;8.994;2023-05-27T07:16:48;5.57;;;1.97;;
3918;SDS011;1974;48.670;8.994;2023-05-27T07:19:15;6.33;;;1.53;;
3918;SDS011;1974;48.670;8.994;2023-05-27T07:21:43;5.70;;;1.57;;
3918;SDS011;1974;48.670;8.994;2023-05-27T07:24:10;4.00;;;1.67;;
3918;SDS011;1974;48.670;8.994;2023-05-27T07:26:37;1.80;;;1.33;;
3918;SDS011;1974;48.670;8.994;2023-05-27T07:29:04;3.10;;;1.40;;
3918;SDS011;1974;48.670;8.994;2023-05-27T07:31:30;3.50;;;1.30;;
3918;SDS011;1974;48.670;8.994;2023-05-27T07:33:57;4.10;;;1.50;;
3918;SDS011;1974;48.670;8.994;2023-05-27T07:36:24;2.03;;;1.57;;
3918;SDS011;1974;48.670;8.994;2023-05-27T07:38:52;4.90;;;1.70;;
3918;SDS011;1974;48.670;8.994;2023-05-27T07:41:19;3.17;;;1.40;;
3918;SDS011;1974;48.670;8.994;2023-05-27T07:43:46;3.83;;;1.67;;
3918;SDS011;1974;48.670;8.994;2023-05-27T07:46:13;2.00;;;1.60;;
3918;SDS011;1974;48.670;8.994;2023-05-27T07:48:40;1.92;;;1.75;;
3918;SDS011;1974;48.670;8.994;2023-05-27T07:51:06;1.70;;;1.60;;
3918;SDS011;1974;48.670;8.994;2023-05-27T07:53:33;1.92;;;1.65;;
3918;SDS011;1974;48.670;8.994;2023-05-27T07:56:03;2.42;;;1.30;;
3918;SDS011;1974;48.670;8.994;2023-05-27T07:58:30;1.40;;;1.30;;
3918;SDS011;1974;48.670;8.994;2023-05-27T08:00:57;1.88;;;1.05;;
3918;SDS011;1974;48.670;8.994;2023-05-27T08:03:24;1.60;;;1.50;;
3918;SDS011;1974;48.670;8.994;2023-05-27T08:05:51;1.50;;;1.15;;
3918;SDS011;1974;48.670;8.994;2023-05-27T08:08:17;2.70;;;1.52;;
3918;SDS011;1974;48.670;8.994;2023-05-27T08:10:44;1.88;;;1.77;;
3918;SDS011;1974;48.670;8.994;2023-05-27T08:13:12;3.08;;;2.28;;
3918;SDS011;1974;48.670;8.994;2023-05-27T08:15:39;3.53;;;1.83;;
3918;SDS011;1974;48.670;8.994;2023-05-27T08:18:06;1.63;;;1.50;;
3918;SDS011;1974;48.670;8.994;2023-05-27T08:20:33;6.38;;;2.13;;
3918;SDS011;1974;48.670;8.994;2023-05-27T08:23:00;2.65;;;1.85;;
3918;SDS011;1974;48.670;8.994;2023-05-27T08:25:26;2.38;;;2.03;;
3918;SDS011;1974;48.670;8.994;2023-05-27T08:27:54;1.50;;;1.30;;
3918;SDS011;1974;48.670;8.994;2023-05-27T08:30:27;3.63;;;1.50;;
3918;SDS011;1974;48.670;8.994;2023-05-27T08:32:54;1.95;;;1.70;;
3918;SDS011;1974;48.670;8.994;2023-05-27T08:35:21;1.80;;;1.45;;
3918;SDS011;1974;48.670;8.994;2023-05-27T08:37:48;1.30;;;1.20;;
3918;SDS011;1974;48.670;8.994;2023-05-27T08:40:15;1.88;;;1.40;;
3918;SDS011;1974;48.670;8.994;2023-05-27T08:42:45;1.75;;;1.65;;
3918;SDS011;1974;48.670;8.994;2023-05-27T08:45:12;1.63;;;1.52;;
3918;SDS011;1974;48.670;8.994;2023-05-27T08:47:40;4.15;;;2.10;;
3918;SDS011;1974;48.670;8.994;2023-05-27T08:50:07;3.83;;;1.92;;
3918;SDS011;1974;48.670;8.994;2023-05-27T08:52:36;3.08;;;1.45;;
3918;SDS011;1974;48.670;8.994;2023-05-27T08:55:08;4.47;;;2.25;;
3918;SDS011;1974;48.670;8.994;2023-05-27T08:57:38;9.27;;;3.25;;
3918;SDS011;1974;48.670;8.994;2023-05-27T09:00:09;2.00;;;1.80;;
3918;SDS011;1974;48.670;8.994;2023-05-27T09:02:38;4.15;;;1.80;;
3918;SDS011;1974;48.670;8.994;2023-05-27T09:05:07;2.88;;;2.15;;
3918;SDS011;1974;48.670;8.994;2023-05-27T09:07:35;1.80;;;1.33;;
3918;SDS011;1974;48.670;8.994;2023-05-27T09:10:03;2.15;;;1.70;;
3918;SDS011;1974;48.670;8.994;2023-05-27T09:12:32;2.88;;;1.83;;
3918;SDS011;1974;48.670;8.994;2023-05-27T09:15:00;1.67;;;1.58;;
3918;SDS011;1974;48.670;8.994;2023-05-27T09:17:27;4.10;;;1.70;;
3918;SDS011;1974;48.670;8.994;2023-05-27T09:19:56;6.53;;;2.00;;
3918;SDS011;1974;48.670;8.994;2023-05-27T09:22:23;3.63;;;1.93;;
3918;SDS011;1974;48.670;8.994;2023-05-27T09:24:52;3.57;;;2.20;;
3918;SDS011;1974;48.670;8.994;2023-05-27T09:27:23;4.53;;;2.10;;
3918;SDS011;1974;48.670;8.994;2023-05-27T09:29:50;3.53;;;2.33;;
3918;SDS011;1974;48.670;8.994;2023-05-27T09:32:23;2.50;;;2.20;;
3918;SDS011;1974;48.670;8.994;2023-05-27T09:34:50;3.40;;;2.20;;
3918;SDS011;1974;48.670;8.994;2023-05-27T09:37:19;3.43;;;1.80;;
3918;SDS011;1974;48.670;8.994;2023-05-27T09:39:47;2.57;;;1.93;;
3918;SDS011;1974;48.670;8.994;2023-05-27T09:42:13;5.60;;;2.93;;
3918;SDS011;1974;48.670;8.994;2023-05-27T09:44:40;4.53;;;1.97;;
3918;SDS011;1974;48.670;8.994;2023-05-27T09:47:10;2.73;;;2.43;;
3918;SDS011;1974;48.670;8.994;2023-05-27T09:49:37;2.70;;;1.90;;
3918;SDS011;1974;48.670;8.994;2023-05-27T09:52:05;3.10;;;2.10;;
3918;SDS011;1974;48.670;8.994;2023-05-27T09:54:34;12.50;;;3.33;;
3918;SDS011;1974;48.670;8.994;2023-05-27T09:57:02;9.60;;;2.33;;
3918;SDS011;1974;48.670;8.994;2023-05-27T09:59:31;3.43;;;1.97;;
3918;SDS011;1974;48.670;8.994;2023-05-27T10:01:58;2.50;;;2.20;;
3918;SDS011;1974;48.670;8.994;2023-05-27T10:04:27;3.03;;;2.10;;
3918;SDS011;1974;48.670;8.994;2023-05-27T10:06:54;2.93;;;1.90;;
3918;SDS011;1974;48.670;8.994;2023-05-27T10:09:22;5.77;;;2.33;;
3918;SDS011;1974;48.670;8.994;2023-05-27T10:11:50;2.80;;;2.60;;
3918;SDS011;1974;48.670;8.994;2023-05-27T10:14:18;3.30;;;2.70;;
3918;SDS011;1974;48.670;8.994;2023-05-27T10:16:50;3.10;;;2.23;;
3918;SDS011;1974;48.670;8.994;2023-05-27T10:19:19;3.10;;;2.03;;
3918;SDS011;1974;48.670;8.994;2023-05-27T10:21:46;3.60;;;3.10;;
3918;SDS011;1974;48.670;8.994;2023-05-27T10:24:13;2.63;;;2.43;;
3918;SDS011;1974;48.670;8.994;2023-05-27T10:26:40;2.20;;;2.00;;
3918;SDS011;1974;48.670;8.994;2023-05-27T10:29:10;1.87;;;1.77;;
3918;SDS011;1974;48.670;8.994;2023-05-27T10:31:43;2.57;;;2.37;;
3918;SDS011;1974;48.670;8.994;2023-05-27T10:34:11;4.57;;;2.27;;
3918;SDS011;1974;48.670;8.994;2023-05-27T10:36:37;2.50;;;2.30;;
3918;SDS011;1974;48.670;8.994;2023-05-27T10:39:06;2.80;;;2.20;;
3918;SDS011;1974;48.670;8.994;2023-05-27T10:41:38;2.57;;;1.60;;
3918;SDS011;1974;48.670;8.994;2023-05-27T10:44:06;7.67;;;2.60;;
3918;SDS011;1974;48.670;8.994;2023-05-27T10:46:43;3.67;;;2.40;;
3918;SDS011;1974;48.670;8.994;2023-05-27T10:49:11;4.63;;;2.83;;
3918;SDS011;1974;48.670;8.994;2023-05-27T10:51:41;3.13;;;2.57;;
3918;SDS011;1974;48.670;8.994;2023-05-27T10:54:09;6.23;;;2.70;;
3918;SDS011;1974;48.670;8.994;2023-05-27T10:56:35;4.60;;;2.57;;
3918;SDS011;1974;48.670;8.994;2023-05-27T10:59:03;2.92;;;2.03;;
3918;SDS011;1974;48.670;8.994;2023-05-27T11:01:36;2.30;;;2.10;;
3918;SDS011;1974;48.670;8.994;2023-05-27T11:04:05;1.87;;;1.77;;
3918;SDS011;1974;48.670;8.994;2023-05-27T11:06:32;2.07;;;1.93;;
3918;SDS011;1974;48.670;8.994;2023-05-27T11:08:59;3.40;;;2.33;;
3918;SDS011;1974;48.670;8.994;2023-05-27T11:11:26;3.93;;;2.73;;
3918;SDS011;1974;48.670;8.994;2023-05-27T11:13:53;2.73;;;2.23;;
3918;SDS011;1974;48.670;8.994;2023-05-27T11:16:20;3.87;;;2.50;;
3918;SDS011;1974;48.670;8.994;2023-05-27T11:18:47;2.57;;;2.23;;
3918;SDS011;1974;48.670;8.994;2023-05-27T11:21:15;3.97;;;2.43;;
3918;SDS011;1974;48.670;8.994;2023-05-27T11:23:44;3.10;;;2.05;;
3918;SDS011;1974;48.670;8.994;2023-05-27T11:26:12;2.07;;;1.80;;
3918;SDS011;1974;48.670;8.994;2023-05-27T11:28:46;4.33;;;2.40;;
3918;SDS011;1974;48.670;8.994;2023-05-27T11:31:14;3.97;;;2.67;;
3918;SDS011;1974;48.670;8.994;2023-05-27T11:33:42;4.93;;;2.30;;
3918;SDS011;1974;48.670;8.994;2023-05-27T11:36:13;2.63;;;2.37;;
3918;SDS011;1974;48.670;8.994;2023-05-27T11:38:52;2.57;;;2.37;;
3918;SDS011;1974;48.670;8.994;2023-05-27T11:41:20;5.97;;;2.50;;
3918;SDS011;1974;48.670;8.994;2023-05-27T11:43:51;4.13;;;2.80;;
3918;SDS011;1974;48.670;8.994;2023-05-27T11:46:21;3.23;;;1.90;;
3918;SDS011;1974;48.670;8.994;2023-05-27T11:48:48;5.70;;;2.40;;
3918;SDS011;1974;48.670;8.994;2023-05-27T11:51:15;2.60;;;2.40;;
3918;SDS011;1974;48.670;8.994;2023-05-27T11:53:44;5.40;;;2.10;;
3918;SDS011;1974;48.670;8.994;2023-05-27T11:56:13;1.97;;;1.80;;
3918;SDS011;1974;48.670;8.994;2023-05-27T11:58:40;2.20;;;2.00;;
3918;SDS011;1974;48.670;8.994;2023-05-27T12:01:07;2.30;;;2.10;;
3918;SDS011;1974;48.670;8.994;2023-05-27T12:03:34;3.80;;;2.90;;
3918;SDS011;1974;48.670;8.994;2023-05-27T12:06:01;2.50;;;2.23;;
3918;SDS011;1974;48.670;8.994;2023-05-27T12:08:28;6.23;;;2.00;;
3918;SDS011;1974;48.670;8.994;2023-05-27T12:10:55;2.03;;;1.93;;
3918;SDS011;1974;48.670;8.994;2023-05-27T12:13:24;2.60;;;2.23;;
3918;SDS011;1974;48.670;8.994;2023-05-27T12:15:51;3.10;;;2.00;;
3918;SDS011;1974;48.670;8.994;2023-05-27T12:18:17;2.43;;;2.23;;
3918;SDS011;1974;48.670;8.994;2023-05-27T12:20:44;3.23;;;1.90;;
3918;SDS011;1974;48.670;8.994;2023-05-27T12:23:12;3.20;;;2.20;;
3918;SDS011;1974;48.670;8.994;2023-05-27T12:25:39;3.70;;;2.37;;
3918;SDS011;1974;48.670;8.994;2023-05-27T12:28:06;3.63;;;2.00;;
3918;SDS011;1974;48.670;8.994;2023-05-27T12:30:35;2.30;;;1.97;;
3918;SDS011;1974;48.670;8.994;2023-05-27T12:33:03;3.07;;;2.07;;
3918;SDS011;1974;48.670;8.994;2023-05-27T12:35:31;5.43;;;2.60;;
3918;SDS011;1974;48.670;8.994;2023-05-27T12:37:58;3.40;;;2.13;;
3918;SDS011;1974;48.670;8.994;2023-05-27T12:40:25;2.33;;;2.00;;
3918;SDS011;1974;48.670;8.994;2023-05-27T12:42:53;3.53;;;2.70;;
3918;SDS011;1974;48.670;8.994;2023-05-27T12:45:20;2.93;;;2.43;;
3918;SDS011;1974;48.670;8.994;2023-05-27T12:47:50;6.13;;;2.13;;
3918;SDS011;1974;48.670;8.994;2023-05-27T12:50:17;2.93;;;2.10;;
3918;SDS011;1974;48.670;8.994;2023-05-27T12:52:44;5.77;;;2.40;;
3918;SDS011;1974;48.670;8.994;2023-05-27T12:55:12;6.10;;;2.80;;
3918;SDS011;1974;48.670;8.994;2023-05-27T12:57:39;3.20;;;2.37;;
3918;SDS011;1974;48.670;8.994;2023-05-27T13:00:06;3.20;;;2.00;;
3918;SDS011;1974;48.670;8.994;2023-05-27T13:02:34;4.83;;;2.23;;
3918;SDS011;1974;48.670;8.994;2023-05-27T13:05:03;3.57;;;2.57;;
3918;SDS011;1974;48.670;8.994;2023-05-27T13:07:31;5.13;;;2.43;;
3918;SDS011;1974;48.670;8.994;2023-05-27T13:09:59;3.30;;;2.13;;
3918;SDS011;1974;48.670;8.994;2023-05-27T13:12:27;8.13;;;2.80;;
3918;SDS011;1974;48.670;8.994;2023-05-27T13:14:54;2.40;;;2.13;;
3918;SDS011;1974;48.670;8.994;2023-05-27T13:17:21;2.80;;;2.63;;
3918;SDS011;1974;48.670;8.994;2023-05-27T13:19:48;4.80;;;2.13;;
3918;SDS011;1974;48.670;8.994;2023-05-27T13:22:16;5.23;;;2.13;;
3918;SDS011;1974;48.670;8.994;2023-05-27T13:24:43;6.70;;;2.47;;
3918;SDS011;1974;48.670;8.994;2023-05-27T13:27:10;3.27;;;2.60;;
3918;SDS011;1974;48.670;8.994;2023-05-27T13:29:37;3.33;;;1.70;;
3918;SDS011;1974;48.670;8.994;2023-05-27T13:32:05;3.60;;;2.60;;
3918;SDS011;1974;48.670;8.994;2023-05-27T13:34:32;4.60;;;2.70;;
3918;SDS011;1974;48.670;8.994;2023-05-27T13:36:59;2.63;;;2.43;;
3918;SDS011;1974;48.670;8.994;2023-05-27T13:39:29;6.60;;;2.23;;
3918;SDS011;1974;48.670;8.994;2023-05-27T13:41:56;3.00;;;2.13;;
3918;SDS011;1974;48.670;8.994;2023-05-27T13:44:23;10.63;;;2.90;;
3918;SDS011;1974;48.670;8.994;2023-05-27T13:46:50;4.53;;;2.53;;
3918;SDS011;1974;48.670;8.994;2023-05-27T13:49:17;5.80;;;3.27;;
3918;SDS011;1974;48.670;8.994;2023-05-27T13:51:44;5.53;;;2.97;;
3918;SDS011;1974;48.670;8.994;2023-05-27T13:54:12;4.70;;;2.37;;
3918;SDS011;1974;48.670;8.994;2023-05-27T13:56:40;3.50;;;2.43;;
3918;SDS011;1974;48.670;8.994;2023-05-27T13:59:07;6.73;;;3.40;;
3918;SDS011;1974;48.670;8.994;2023-05-27T14:01:34;5.73;;;2.50;;
3918;SDS011;1974;48.670;8.994;2023-05-27T14:04:01;3.27;;;2.37;;
3918;SDS011;1974;48.670;8.994;2023-05-27T14:06:28;3.33;;;2.63;;
3918;SDS011;1974;48.670;8.994;2023-05-27T14:08:56;4.27;;;2.60;;
3918;SDS011;1974;48.670;8.994;2023-05-27T14:11:23;1.97;;;1.73;;
3918;SDS011;1974;48.670;8.994;2023-05-27T14:13:52;4.40;;;2.03;;
3918;SDS011;1974;48.670;8.994;2023-05-27T14:16:20;4.97;;;2.17;;
3918;SDS011;1974;48.670;8.994;2023-05-27T14:18:47;2.70;;;2.07;;
3918;SDS011;1974;48.670;8.994;2023-05-27T14:21:14;7.80;;;2.00;;
3918;SDS011;1974;48.670;8.994;2023-05-27T14:23:41;6.13;;;2.83;;
3918;SDS011;1974;48.670;8.994;2023-05-27T14:26:09;4.33;;;2.23;;
3918;SDS011;1974;48.670;8.994;2023-05-27T14:28:36;3.67;;;3.03;;
3918;SDS011;1974;48.670;8.994;2023-05-27T14:31:04;4.67;;;2.03;;
3918;SDS011;1974;48.670;8.994;2023-05-27T14:33:31;4.83;;;2.50;;
3918;SDS011;1974;48.670;8.994;2023-05-27T14:35:58;2.17;;;1.90;;
3918;SDS011;1974;48.670;8.994;2023-05-27T14:38:24;4.07;;;2.30;;
3918;SDS011;1974;48.670;8.994;2023-05-27T14:40:51;2.90;;;2.30;;
3918;SDS011;1974;48.670;8.994;2023-05-27T14:43:18;4.13;;;2.17;;
3918;SDS011;1974;48.670;8.994;2023-05-27T14:45:44;3.13;;;1.90;;
3918;SDS011;1974;48.670;8.994;2023-05-27T14:48:13;5.10;;;2.03;;
3918;SDS011;1974;48.670;8.994;2023-05-27T14:50:39;1.97;;;1.37;;
3918;SDS011;1974;48.670;8.994;2023-05-27T14:53:06;8.13;;;2.40;;
3918;SDS011;1974;48.670;8.994;2023-05-27T14:55:33;4.00;;;2.10;;
3918;SDS011;1974;48.670;8.994;2023-05-27T14:58:00;5.17;;;2.23;;
3918;SDS011;1974;48.670;8.994;2023-05-27T15:00:29;3.33;;;2.00;;
3918;SDS011;1974;48.670;8.994;2023-05-27T15:02:56;5.13;;;1.77;;
3918;SDS011;1974;48.670;8.994;2023-05-27T15:05:24;3.07;;;1.90;;
3918;SDS011;1974;48.670;8.994;2023-05-27T15:07:51;2.83;;;1.77;;
3918;SDS011;1974;48.670;8.994;2023-05-27T15:10:17;7.80;;;1.77;;
3918;SDS011;1974;48.670;8.994;2023-05-27T15:12:44;2.33;;;2.00;;
3918;SDS011;1974;48.670;8.994;2023-05-27T15:15:13;3.70;;;2.23;;
3918;SDS011;1974;48.670;8.994;2023-05-27T15:17:42;6.07;;;2.20;;